Terminal Aerodrome Forecast
Issued by NWS Jackson, MS

Home | Current Version | Previous Version | Text Only | Print | Product List | Glossary On
Versions: 1 2 3 4 5 6 7 8 9 10 11 12 13 14 15 16 17 18 19 20 21
000
FTUS44 KJAN 010500
TAFHBG
TAF
KHBG 010520Z 0106/0206 00000KT P6SM SKC
     FM010800 00000KT 4SM BR SKC
     FM011100 00000KT 2SM BR BKN001
     FM011400 15003KT P6SM BKN003
     FM011600 16006KT P6SM SCT100=

USA.gov is the U.S. government's official web portal to all federal, state and local government web resources and services.